createdAt,value
2023-04-22T00:00:10.719Z,14.42
2023-04-22T00:05:11.427Z,13.8
2023-04-22T00:10:10.624Z,13.5
2023-04-22T00:15:11.700Z,13.84
2023-04-22T00:20:10.638Z,13.84
2023-04-22T00:25:10.676Z,13.84
2023-04-22T00:30:10.737Z,13.33
2023-04-22T00:35:10.673Z,13.33
2023-04-22T00:40:10.642Z,13.41
2023-04-22T00:45:10.781Z,13.41
2023-04-22T00:50:10.658Z,13.41
2023-04-22T00:55:10.690Z,13.41
2023-04-22T01:00:10.698Z,13.35
2023-04-22T01:05:10.728Z,13.35
2023-04-22T01:10:11.340Z,13.35
2023-04-22T01:15:10.623Z,12.84
2023-04-22T01:20:10.906Z,12.84
2023-04-22T01:25:10.728Z,12.84
2023-04-22T01:30:10.801Z,12.84
2023-04-22T01:35:10.624Z,12.84
2023-04-22T01:40:10.697Z,13.08
2023-04-22T01:45:10.682Z,13.19
2023-04-22T01:50:10.710Z,13.19
2023-04-22T01:55:10.706Z,13.71
2023-04-22T02:00:13.530Z,13.18
2023-04-22T02:05:10.639Z,13.18
2023-04-22T02:10:10.726Z,12.76
2023-04-22T02:15:10.595Z,12.76
2023-04-22T02:20:10.769Z,12.21
2023-04-22T02:25:10.670Z,12.21
2023-04-22T02:30:10.754Z,12.21
2023-04-22T02:35:05.683Z,12.06
2023-04-22T02:40:10.698Z,12.06
2023-04-22T02:45:10.658Z,12.06
2023-04-22T02:55:10.721Z,12.06
2023-04-22T03:00:12.497Z,12.06
2023-04-22T03:05:10.656Z,12.06
2023-04-22T03:10:10.703Z,12.06
2023-04-22T03:15:10.639Z,12.06
2023-04-22T03:20:05.680Z,12.06
2023-04-22T03:25:10.701Z,12.22
2023-04-22T03:30:10.648Z,12.05
2023-04-22T03:35:10.671Z,12.05
2023-04-22T03:40:11.694Z,12.05
2023-04-22T03:45:10.676Z,12.05
2023-04-22T03:50:10.709Z,11.86
2023-04-22T03:55:10.721Z,11.63
2023-04-22T04:00:10.699Z,11.63
2023-04-22T04:05:11.713Z,11.63
2023-04-22T04:10:10.630Z,11.1
2023-04-22T04:15:10.700Z,10.6
2023-04-22T04:20:10.724Z,10.6
2023-04-22T04:25:10.696Z,10.6
2023-04-22T04:30:10.623Z,11.1
2023-04-22T04:35:10.681Z,11.1
2023-04-22T04:40:10.643Z,10.58
2023-04-22T04:45:10.665Z,10.54
2023-04-22T04:50:10.684Z,10.64
2023-04-22T04:55:10.693Z,10.64
2023-04-22T05:00:10.647Z,10.64
2023-04-22T05:05:11.472Z,10.64
2023-04-22T05:10:10.612Z,10.64
2023-04-22T05:15:10.711Z,11.23
2023-04-22T05:20:10.705Z,11.23
2023-04-22T05:25:10.688Z,12.93
2023-04-22T05:30:10.620Z,15.18
2023-04-22T05:35:05.745Z,16.7
2023-04-22T05:40:10.778Z,18.11
2023-04-22T05:45:10.734Z,18.68
2023-04-22T05:50:10.683Z,19.19
2023-04-22T05:55:10.623Z,19.19
2023-04-22T06:00:10.727Z,19.19
2023-04-22T06:05:10.749Z,18.66
2023-04-22T06:10:10.727Z,18.11
2023-04-22T06:15:10.735Z,17.58
2023-04-22T06:20:10.740Z,17.58
2023-04-22T06:25:10.649Z,17.55
2023-04-22T06:30:10.757Z,17.55
2023-04-22T06:35:10.652Z,17.55
2023-04-22T06:40:10.716Z,17.02
2023-04-22T06:45:10.794Z,17.02
2023-04-22T06:50:10.760Z,17.02
2023-04-22T06:55:10.672Z,16.96
2023-04-22T07:00:10.748Z,16.96
2023-04-22T07:05:10.645Z,17.46
2023-04-22T07:10:10.736Z,17.61
2023-04-22T07:15:10.689Z,17.61
2023-04-22T07:20:13.850Z,17.99
2023-04-22T07:25:10.618Z,18.54
2023-04-22T07:30:10.700Z,18.54
2023-04-22T07:35:10.647Z,18.54
2023-04-22T07:40:10.661Z,18.54
2023-04-22T07:45:10.708Z,18.54
2023-04-22T07:50:10.703Z,18.54
2023-04-22T07:55:10.684Z,18.54
2023-04-22T08:00:12.403Z,18.54
2023-04-22T08:05:10.716Z,19.06
2023-04-22T08:10:11.320Z,19.06
2023-04-22T08:15:10.710Z,19.06
2023-04-22T08:20:10.697Z,19.06
2023-04-22T08:25:10.613Z,19.06
2023-04-22T08:30:10.696Z,19.06
2023-04-22T08:35:05.837Z,19.24
2023-04-22T08:40:10.705Z,19.24
2023-04-22T08:45:10.720Z,19.24
2023-04-22T08:50:11.382Z,19.77
2023-04-22T08:55:10.624Z,19.77
2023-04-22T09:00:10.761Z,20.15
2023-04-22T09:05:10.655Z,20.15
2023-04-22T09:10:11.590Z,20.15
2023-04-22T09:15:10.675Z,19.77
2023-04-22T09:20:10.665Z,19.77
2023-04-22T09:25:10.618Z,20.32
2023-04-22T09:30:10.681Z,20.32
2023-04-22T09:35:05.622Z,20.32
2023-04-22T09:40:10.708Z,20.84
2023-04-22T09:45:10.738Z,20.84
2023-04-22T09:50:10.710Z,20.78
2023-04-22T09:55:10.663Z,20.78
2023-04-22T10:00:10.696Z,20.78
2023-04-22T10:05:10.653Z,21.35
2023-04-22T10:10:10.664Z,21.35
2023-04-22T10:15:10.704Z,21.35
2023-04-22T10:20:12.196Z,21.35
2023-04-22T10:25:10.859Z,21.35
2023-04-22T10:30:10.765Z,21.85
2023-04-22T10:35:10.625Z,22.4
2023-04-22T10:40:10.705Z,22.4
2023-04-22T10:45:10.697Z,22.94
2023-04-22T10:50:10.730Z,22.57
2023-04-22T10:55:10.632Z,22.57
2023-04-22T11:00:10.751Z,22.57
2023-04-22T11:05:11.239Z,22.57
2023-04-22T11:10:10.705Z,22.57
2023-04-22T11:15:11.514Z,22.57
2023-04-22T11:20:10.699Z,23.46
2023-04-22T11:25:10.638Z,23.97
2023-04-22T11:30:11.451Z,23.97
2023-04-22T11:35:10.699Z,23.97
2023-04-22T11:40:27.772Z,23.97
2023-04-22T11:45:10.691Z,23.97
2023-04-22T11:50:10.617Z,24.51
2023-04-22T11:55:11.457Z,23.99
2023-04-22T12:00:10.708Z,23.99
2023-04-22T12:05:10.702Z,23.99
2023-04-22T12:10:10.650Z,23.99
2023-04-22T12:15:13.424Z,23.99
2023-04-22T12:20:10.633Z,24.22
2023-04-22T12:25:10.740Z,24.22
2023-04-22T12:30:10.737Z,23.69
2023-04-22T12:35:10.704Z,23.69
2023-04-22T12:40:10.701Z,23.15
2023-04-22T12:45:10.790Z,23.15
2023-04-22T12:50:10.749Z,23
2023-04-22T12:55:11.465Z,23
2023-04-22T13:00:10.795Z,23.69
2023-04-22T13:05:10.672Z,23.69
2023-04-22T13:10:10.615Z,24.1
2023-04-22T13:15:10.670Z,24.1
2023-04-22T13:20:10.650Z,23.59
2023-04-22T13:25:10.701Z,23.59
2023-04-22T13:30:10.764Z,23.59
2023-04-22T13:35:10.658Z,23.59
2023-04-22T13:40:10.776Z,23.7
2023-04-22T13:45:10.696Z,24.36
2023-04-22T13:50:05.641Z,24.36
2023-04-22T13:55:10.670Z,24.36
2023-04-22T14:00:10.719Z,24.18
2023-04-22T14:05:10.671Z,24.18
2023-04-22T14:10:10.643Z,24.18
2023-04-22T14:15:10.705Z,24.18
2023-04-22T14:20:10.682Z,24.7
2023-04-22T14:25:10.780Z,24.7
2023-04-22T14:30:10.702Z,24.18
2023-04-22T14:35:10.669Z,24.18
2023-04-22T14:40:10.611Z,24.21
2023-04-22T14:45:10.719Z,24.18
2023-04-22T14:50:10.632Z,24.18
2023-04-22T14:55:22.062Z,24.18
2023-04-22T15:00:10.748Z,24.18
2023-04-22T15:05:10.662Z,23.67
2023-04-22T15:10:10.980Z,23.67
2023-04-22T15:15:12.314Z,23.67
2023-04-22T15:20:10.611Z,23.17
2023-04-22T15:25:10.675Z,23.17
2023-04-22T15:30:10.731Z,23.17
2023-04-22T15:35:10.682Z,22.84
2023-04-22T15:40:10.633Z,22.64
2023-04-22T15:45:10.705Z,22.64
2023-04-22T15:50:10.731Z,22.11
2023-04-22T15:55:10.603Z,22.11
2023-04-22T16:00:12.383Z,22.11
2023-04-22T16:05:10.658Z,22.11
2023-04-22T16:10:11.484Z,21.57
2023-04-22T16:15:11.746Z,21.57
2023-04-22T16:20:10.688Z,21.57
2023-04-22T16:25:10.634Z,21.24
2023-04-22T16:30:10.679Z,21.06
2023-04-22T16:35:10.646Z,21.06
2023-04-22T16:40:11.474Z,21.06
2023-04-22T16:45:10.652Z,21.06
2023-04-22T16:50:10.717Z,21.06
2023-04-22T16:55:10.706Z,21.06
2023-04-22T17:00:10.667Z,20.54
2023-04-22T17:05:10.662Z,20.54
2023-04-22T17:10:11.289Z,20.54
2023-04-22T17:15:10.614Z,20.54
2023-04-22T17:20:10.693Z,20.54
2023-04-22T17:25:10.704Z,20.2
2023-04-22T17:30:10.696Z,20.03
2023-04-22T17:35:10.669Z,20.03
2023-04-22T17:40:10.743Z,20.03
2023-04-22T17:45:10.660Z,20.03
2023-04-22T17:50:10.739Z,19.53
2023-04-22T17:55:10.939Z,19.53
2023-04-22T18:00:10.824Z,19.53
2023-04-22T18:05:10.637Z,19.53
2023-04-22T18:10:10.819Z,19.02
2023-04-22T18:15:10.706Z,18.83
2023-04-22T18:20:18.233Z,18.51
2023-04-22T18:25:10.678Z,18.51
2023-04-22T18:30:10.699Z,18.51
2023-04-22T18:35:10.670Z,18.51
2023-04-22T18:40:10.693Z,18
2023-04-22T18:45:10.677Z,18
2023-04-22T18:50:11.737Z,18
2023-04-22T18:55:10.729Z,18
2023-04-22T19:00:10.649Z,18
2023-04-22T19:40:10.700Z,17.02
2023-04-22T19:45:10.651Z,17.02
2023-04-22T19:50:10.714Z,17.02
2023-04-22T19:55:10.727Z,17.02
2023-04-22T20:00:10.682Z,16.63
2023-04-22T20:40:10.728Z,16.51
2023-04-22T20:45:10.616Z,16.05
2023-04-22T20:50:10.688Z,15.93
2023-04-22T20:55:10.707Z,15.93
2023-04-22T21:30:10.682Z,15.93
2023-04-22T21:35:10.620Z,15.55
2023-04-22T21:40:10.714Z,15.55
2023-04-22T21:45:10.619Z,15.08
2023-04-22T21:50:10.727Z,15.08
2023-04-22T22:30:10.675Z,14.52
2023-04-22T22:35:10.654Z,14.52
2023-04-22T22:40:10.708Z,14.5
2023-04-22T22:45:10.685Z,14.5
2023-04-22T23:20:10.640Z,14.5
2023-04-22T23:25:12.386Z,14.5
2023-04-22T23:30:10.624Z,14.5
2023-04-22T23:35:10.670Z,13.76
2023-04-22T23:40:10.701Z,13.76
2023-04-22T23:45:10.662Z,13.76
